Hope, ME (04847)

11:34 AM EDT on October 24, 2014 (GMT -0400)
Hope, Maine: Church Street Apple Orchard | Change Station
CLOSE
Current Station
Personal Weather Station
Location: Hope, ME
Elevation: 420 ft
Nearby Weather Stations

Elev 420 ft 44.27 °N, 69.15 °W | Updated 4 minutes ago

Overcast
Overcast
44.3 °F
Feels Like 44 °F
N
2.0
Wind Variable Wind from West
Gusts 2.0 mph

Today
High -- | Low -- °F
--% Chance of Precip.
Yesterday
High -- | Low -- °F
Precip. -- in
7:02 AM 5:37 PM
New Moon, 1% visible
Pressure 29.64 in
Visibility 10.0 miles
Clouds Overcast 1200 ft
Windchill 44 °F
Dew Point 44 °F
Humidity 98%
Rainfall 0.07 in
Snow Depth Not available.
UV 1 out of 12
Pollen .10 out of 12
Air Quality Not available.
Flu Activity Sporadic
METAR KRKD 241515Z AUTO 34008G15KT 290V020 10SM OVC012 09/07 A2964 RMK AO1

More Conditions Fewer Conditions

Pressure 29.64 in
Visibility 10.0 miles
Clouds Overcast 1200 ft
Windchill 44 °F
Dew Point 44 °F
Humidity 98%
Rainfall 0.07 in
Snow Depth Not available.
UV 1 out of 12
Pollen .10 out of 12
Air Quality Not available.
Flu Activity Sporadic
METAR KRKD 241515Z AUTO 34008G15KT 290V020 10SM OVC012 09/07 A2964 RMK AO1

More Conditions Fewer Conditions

10-Day Weather Forecast

Almanac

Astronomy

Oct. 24, 2014 Rise Set
Actual Time 7:02 AM EDT 5:37 PM EDT
Civil Twilight 6:33 AM EDT 6:07 PM EDT
Nautical Twilight 5:59 AM EDT 6:41 PM EDT
Astronomical Twilight 5:25 AM EDT 7:14 PM EDT
Moon 7:39 AM EDT 6:13 PM EDT
Length of Visible Light 11h 34m
Length of Day
10h 35m
Tomorrow will be 2m 51s shorter.
New Moon, 1% of the Moon is Illuminated
Today
New Moon
Oct 30
First Quarter
Nov 6
Full
Nov 14
Last Quarter
Nov 22
New

Today's Extremes

State Highs State Lows

Community

WunderPhotos

Upload Photos

1,764,589 photos uploaded!

WunderBlogs® & News

Nearby

Air Quality

  Air Quality AQ Index Pollutant
Friday Good
OZONE
Friday Good
PM2.5
Saturday Good
OZONE
Saturday Good
PM2.5

Snow Depth

Station Depth Elevation
No new snow has been reported.

Earthquake Activity

City Distance Mag. Time & Date
No recent earthquake activity has been reported nearby.
Minimum magnitude displayed is 2.5.

Coastal Water Temperatures

Place Temperature
Bar Harbor, ME 54.0 °F
Portland, ME 54.0 °F

Nearby Weather Stations